createdAt,value
2022-09-12T00:00:28.082Z,11.45
2022-09-12T00:02:56.414Z,11.31
2022-09-12T00:05:24.346Z,11.60
2022-09-12T00:07:52.286Z,11.56
2022-09-12T00:10:20.237Z,11.76
2022-09-12T00:12:48.157Z,11.77
2022-09-12T00:15:16.083Z,11.54
2022-09-12T00:17:45.633Z,11.35
2022-09-12T00:20:13.537Z,11.30
2022-09-12T00:22:41.429Z,11.20
2022-09-12T00:25:09.606Z,11.49
2022-09-12T00:27:37.538Z,11.26
2022-09-12T00:30:06.640Z,11.34
2022-09-12T00:32:35.165Z,11.18
2022-09-12T00:35:04.721Z,11.12
2022-09-12T00:37:32.651Z,11.03
2022-09-12T00:40:00.592Z,10.95
2022-09-12T00:42:28.526Z,11.03
2022-09-12T00:44:56.593Z,10.98
2022-09-12T00:47:26.812Z,11.09
2022-09-12T00:49:59.269Z,11.19
2022-09-12T00:52:31.058Z,10.91
2022-09-12T00:55:03.106Z,10.74
2022-09-12T00:57:34.365Z,10.79
2022-09-12T01:00:10.909Z,10.68
2022-09-12T01:02:39.083Z,10.79
2022-09-12T01:05:08.224Z,10.76
2022-09-12T01:07:40.194Z,10.71
2022-09-12T01:10:09.692Z,10.60
2022-09-12T01:12:40.398Z,10.40
2022-09-12T01:15:09.429Z,10.49
2022-09-12T01:17:48.867Z,10.66
2022-09-12T01:20:44.114Z,10.63
2022-09-12T01:23:54.320Z,10.68
2022-09-12T01:26:44.328Z,10.50
2022-09-12T01:29:25.705Z,10.42
2022-09-12T01:32:00.544Z,10.51
2022-09-12T01:34:33.857Z,10.62
2022-09-12T01:37:07.205Z,10.48
2022-09-12T01:39:39.804Z,10.41
2022-09-12T01:42:15.249Z,10.19
2022-09-12T01:44:49.492Z,10.11
2022-09-12T01:47:22.422Z,9.87
2022-09-12T01:49:57.193Z,9.92
2022-09-12T01:52:27.824Z,9.84
2022-09-12T01:55:00.517Z,9.75
2022-09-12T01:57:30.876Z,9.74
2022-09-12T02:00:01.872Z,9.69
2022-09-12T02:02:35.264Z,9.15
2022-09-12T02:05:06.701Z,9.60
2022-09-12T02:07:38.565Z,9.65
2022-09-12T02:10:09.277Z,9.60
2022-09-12T02:12:40.705Z,9.56
2022-09-12T02:15:10.726Z,9.55
2022-09-12T02:17:43.328Z,9.44
2022-09-12T02:20:25.971Z,9.20
2022-09-12T02:23:04.744Z,9.43
2022-09-12T02:25:33.012Z,9.39
2022-09-12T02:28:03.389Z,9.41
2022-09-12T02:30:35.425Z,9.43
2022-09-12T02:33:08.365Z,9.42
2022-09-12T02:35:40.480Z,9.46
2022-09-12T02:38:10.963Z,9.39
2022-09-12T02:40:39.132Z,9.38
2022-09-12T02:43:07.618Z,9.41
2022-09-12T02:45:36.022Z,9.35
2022-09-12T02:48:07.529Z,9.28
2022-09-12T02:50:35.752Z,9.33
2022-09-12T02:53:05.057Z,9.27
2022-09-12T02:55:33.894Z,8.76
2022-09-12T02:58:02.756Z,9.30
2022-09-12T03:00:32.682Z,9.28
2022-09-12T03:03:22.785Z,9.30
2022-09-12T03:05:56.983Z,9.31
2022-09-12T03:08:44.345Z,9.38
2022-09-12T03:11:43.908Z,9.26
2022-09-12T03:14:23.129Z,9.23
2022-09-12T03:16:58.369Z,9.32
2022-09-12T03:19:33.697Z,9.26
2022-09-12T03:22:05.574Z,9.04
2022-09-12T03:24:35.846Z,9.13
2022-09-12T03:27:09.661Z,9.12
2022-09-12T03:29:38.622Z,9.10
2022-09-12T03:32:07.511Z,9.08
2022-09-12T03:34:37.021Z,9.15
2022-09-12T03:37:05.165Z,9.02
2022-09-12T03:39:33.295Z,8.84
2022-09-12T03:42:01.210Z,8.91
2022-09-12T03:44:29.212Z,8.97
2022-09-12T03:46:57.108Z,8.87
2022-09-12T03:49:25.010Z,8.92
2022-09-12T03:51:54.268Z,8.88
2022-09-12T03:54:22.253Z,8.83
2022-09-12T03:56:50.186Z,8.92
2022-09-12T03:59:18.121Z,8.92
2022-09-12T04:01:46.014Z,8.97
2022-09-12T04:04:13.905Z,9.01
2022-09-12T04:06:42.806Z,9.03
2022-09-12T04:09:12.192Z,8.99
2022-09-12T04:11:40.124Z,9.18
2022-09-12T04:14:08.278Z,9.10
2022-09-12T04:16:36.296Z,9.14
2022-09-12T04:19:04.321Z,8.92
2022-09-12T04:21:32.316Z,8.82
2022-09-12T04:24:00.234Z,8.87
2022-09-12T04:26:29.982Z,8.74
2022-09-12T04:28:57.901Z,8.69
2022-09-12T04:31:26.789Z,8.67
2022-09-12T04:33:56.069Z,8.74
2022-09-12T04:36:24.414Z,8.77
2022-09-12T04:38:53.157Z,8.77
2022-09-12T04:41:22.188Z,8.91
2022-09-12T04:43:54.138Z,8.92
2022-09-12T04:46:22.281Z,8.75
2022-09-12T04:48:55.942Z,9.03
2022-09-12T04:51:27.803Z,9.16
2022-09-12T04:53:57.683Z,9.26
2022-09-12T04:56:26.397Z,9.35
2022-09-12T04:58:57.518Z,9.37
2022-09-12T05:01:25.535Z,9.67
2022-09-12T05:03:53.565Z,9.81
2022-09-12T05:06:22.804Z,9.74
2022-09-12T05:08:51.145Z,9.81
2022-09-12T05:11:24.722Z,9.75
2022-09-12T05:13:55.988Z,9.76
2022-09-12T05:16:25.019Z,9.99
2022-09-12T05:18:53.001Z,10.60
2022-09-12T05:21:23.188Z,10.61
2022-09-12T05:23:52.882Z,10.41
2022-09-12T05:26:21.630Z,10.46
2022-09-12T05:28:49.913Z,10.67
2022-09-12T05:31:20.938Z,10.62
2022-09-12T05:33:50.199Z,10.43
2022-09-12T05:36:19.929Z,10.61
2022-09-12T05:38:48.221Z,10.39
2022-09-12T05:41:21.865Z,10.41
2022-09-12T05:43:53.893Z,10.40
2022-09-12T05:46:25.689Z,10.17
2022-09-12T05:48:56.337Z,10.53
2022-09-12T05:51:26.567Z,10.54
2022-09-12T05:53:56.723Z,10.88
2022-09-12T05:56:26.059Z,10.98
2022-09-12T05:58:55.862Z,11.05
2022-09-12T06:01:25.959Z,10.89
2022-09-12T06:03:55.369Z,11.00
2022-09-12T06:06:25.270Z,11.02
2022-09-12T06:08:54.866Z,11.05
2022-09-12T06:11:24.060Z,11.29
2022-09-12T06:13:52.061Z,11.16
2022-09-12T06:16:21.416Z,11.53
2022-09-12T06:18:52.125Z,11.93
2022-09-12T06:21:20.113Z,11.85
2022-09-12T06:23:48.178Z,12.07
2022-09-12T06:26:17.547Z,11.92
2022-09-12T06:28:46.330Z,11.83
2022-09-12T06:31:16.453Z,11.88
2022-09-12T06:33:46.875Z,12.01
2022-09-12T06:36:17.793Z,12.03
2022-09-12T06:38:46.358Z,12.09
2022-09-12T06:41:14.662Z,12.28
2022-09-12T06:43:43.148Z,12.38
2022-09-12T06:46:12.340Z,12.23
2022-09-12T06:48:42.110Z,12.44
2022-09-12T06:51:13.390Z,12.50
2022-09-12T06:53:43.215Z,12.58
2022-09-12T06:56:12.373Z,12.85
2022-09-12T06:58:41.077Z,12.99
2022-09-12T07:01:10.840Z,13.15
2022-09-12T07:03:39.326Z,13.13
2022-09-12T07:06:08.634Z,13.22
2022-09-12T07:08:37.129Z,13.02
2022-09-12T07:11:12.587Z,13.36
2022-09-12T07:13:40.939Z,13.44
2022-09-12T07:16:10.108Z,13.73
2022-09-12T07:18:39.171Z,13.73
2022-09-12T07:21:08.516Z,13.86
2022-09-12T07:23:36.452Z,14.27
2022-09-12T07:26:05.007Z,14.22
2022-09-12T07:28:35.409Z,14.35
2022-09-12T07:31:07.488Z,14.36
2022-09-12T07:33:36.195Z,14.78
2022-09-12T07:36:05.255Z,15.06
2022-09-12T07:38:33.305Z,15.11
2022-09-12T07:41:01.784Z,15.11
2022-09-12T07:43:29.681Z,15.29
2022-09-12T07:45:59.037Z,15.14
2022-09-12T07:48:28.423Z,15.20
2022-09-12T07:51:00.712Z,14.97
2022-09-12T07:53:31.744Z,15.09
2022-09-12T07:55:59.702Z,14.49
2022-09-12T07:58:27.882Z,15.23
2022-09-12T08:00:55.762Z,15.37
2022-09-12T08:03:25.053Z,15.50
2022-09-12T08:05:52.958Z,15.44
2022-09-12T08:08:20.858Z,15.89
2022-09-12T08:10:48.743Z,15.96
2022-09-12T08:13:16.657Z,16.00
2022-09-12T08:15:44.604Z,16.25
2022-09-12T08:18:12.578Z,15.81
2022-09-12T08:20:42.066Z,16.04
2022-09-12T08:23:10.094Z,16.20
2022-09-12T08:25:37.982Z,16.67
2022-09-12T08:28:05.906Z,17.21
2022-09-12T08:30:33.882Z,17.26
2022-09-12T08:33:01.801Z,17.76
2022-09-12T08:35:29.695Z,17.53
2022-09-12T08:37:59.278Z,18.26
2022-09-12T08:40:27.262Z,18.50
2022-09-12T08:43:00.229Z,18.34
2022-09-12T08:45:34.030Z,18.29
2022-09-12T08:48:04.622Z,17.63
2022-09-12T08:50:33.542Z,18.13
2022-09-12T08:53:04.823Z,18.44
2022-09-12T08:55:35.752Z,18.38
2022-09-12T08:58:12.161Z,18.13
2022-09-12T09:00:47.310Z,17.78
2022-09-12T09:03:36.862Z,17.91
2022-09-12T09:06:08.303Z,18.25
2022-09-12T09:08:47.928Z,18.27
2022-09-12T09:11:29.651Z,17.73
2022-09-12T09:14:24.854Z,17.59
2022-09-12T09:16:54.118Z,17.59
2022-09-12T09:19:26.522Z,18.11
2022-09-12T09:21:56.697Z,18.02
2022-09-12T09:24:29.862Z,17.95
2022-09-12T09:26:59.525Z,18.56
2022-09-12T09:29:31.314Z,18.99
2022-09-12T09:32:01.636Z,18.76
2022-09-12T09:34:32.098Z,19.00
2022-09-12T09:37:04.924Z,19.71
2022-09-12T09:39:43.948Z,20.16
2022-09-12T09:42:22.109Z,19.36
2022-09-12T09:44:50.137Z,18.95
2022-09-12T09:47:19.245Z,18.72
2022-09-12T09:49:47.656Z,18.23
2022-09-12T09:52:17.676Z,17.70
2022-09-12T09:54:50.272Z,18.14
2022-09-12T09:57:40.796Z,17.93
2022-09-12T10:00:30.710Z,18.23
2022-09-12T10:03:11.448Z,19.11
2022-09-12T10:05:47.498Z,19.25
2022-09-12T10:08:22.203Z,19.30
2022-09-12T10:11:01.992Z,19.72
2022-09-12T10:13:39.506Z,20.39
2022-09-12T10:16:19.968Z,20.97
2022-09-12T10:18:51.277Z,21.75
2022-09-12T10:21:28.141Z,21.41
2022-09-12T10:24:05.402Z,21.62
2022-09-12T10:26:37.412Z,21.51
2022-09-12T10:29:12.548Z,21.12
2022-09-12T10:31:47.397Z,20.70
2022-09-12T10:34:27.931Z,20.15
2022-09-12T10:37:01.664Z,19.85
2022-09-12T10:39:31.020Z,19.43
2022-09-12T10:42:01.455Z,20.33
2022-09-12T10:44:51.792Z,20.56
2022-09-12T10:47:22.012Z,20.93
2022-09-12T10:49:51.192Z,21.15
2022-09-12T10:52:23.682Z,21.57
2022-09-12T10:54:52.039Z,21.78
2022-09-12T10:57:52.841Z,21.30
2022-09-12T11:00:27.698Z,19.78
2022-09-12T11:03:03.493Z,19.54
2022-09-12T11:05:41.062Z,18.95
2022-09-12T11:08:15.977Z,18.64
2022-09-12T11:10:51.637Z,18.40
2022-09-12T11:13:30.207Z,17.96
2022-09-12T11:16:13.622Z,17.89
2022-09-12T11:19:07.473Z,17.90
2022-09-12T11:21:46.450Z,17.65
2022-09-12T11:25:02.706Z,17.68
2022-09-12T11:27:40.710Z,17.81
2022-09-12T11:30:12.993Z,17.80
2022-09-12T11:32:53.349Z,17.84
2022-09-12T11:35:27.614Z,18.06
2022-09-12T11:38:26.594Z,18.57
2022-09-12T11:40:56.162Z,18.29
2022-09-12T11:43:30.714Z,18.40
2022-09-12T11:46:02.850Z,18.93
2022-09-12T11:48:38.698Z,20.01
2022-09-12T11:51:09.221Z,19.89
2022-09-12T11:53:40.505Z,20.49
2022-09-12T11:56:13.336Z,21.19
2022-09-12T11:58:42.026Z,21.20
2022-09-12T12:01:16.186Z,21.13
2022-09-12T12:03:46.155Z,20.42
2022-09-12T12:06:19.199Z,20.38
2022-09-12T12:08:48.226Z,19.25
2022-09-12T12:11:17.265Z,18.93
2022-09-12T12:13:48.790Z,18.41
2022-09-12T12:16:22.613Z,18.56
2022-09-12T12:18:55.190Z,18.83
2022-09-12T12:21:37.479Z,18.58
2022-09-12T12:24:17.395Z,19.05
2022-09-12T12:26:56.679Z,19.05
2022-09-12T12:29:44.095Z,19.75
2022-09-12T12:32:25.014Z,20.27
2022-09-12T12:35:03.607Z,20.34
2022-09-12T12:37:54.167Z,19.94
2022-09-12T12:40:29.937Z,20.14
2022-09-12T12:43:31.980Z,20.71
2022-09-12T12:46:15.767Z,20.65
2022-09-12T12:49:02.607Z,21.19
2022-09-12T12:51:48.325Z,20.80
2022-09-12T12:54:50.614Z,20.57
2022-09-12T12:57:28.545Z,20.39
2022-09-12T12:59:58.971Z,19.92
2022-09-12T13:02:31.928Z,19.77
2022-09-12T13:05:03.068Z,19.41
2022-09-12T13:07:33.960Z,19.24
2022-09-12T13:10:03.121Z,19.25
2022-09-12T13:12:34.021Z,19.51
2022-09-12T13:15:03.348Z,19.95
2022-09-12T13:17:35.366Z,21.20
2022-09-12T13:20:29.258Z,21.83
2022-09-12T13:22:58.060Z,21.77
2022-09-12T13:25:29.474Z,20.85
2022-09-12T13:28:03.668Z,20.93
2022-09-12T13:30:32.982Z,20.91
2022-09-12T13:33:09.129Z,20.84
2022-09-12T13:35:45.924Z,20.89
2022-09-12T13:38:19.520Z,20.58
2022-09-12T13:40:58.953Z,20.53
2022-09-12T13:43:37.979Z,20.20
2022-09-12T13:46:07.990Z,20.47
2022-09-12T13:48:36.162Z,20.95
2022-09-12T13:51:06.865Z,21.28
2022-09-12T13:53:43.435Z,21.46
2022-09-12T13:56:17.408Z,21.27
2022-09-12T13:58:54.026Z,21.47
2022-09-12T14:01:22.640Z,21.24
2022-09-12T14:04:09.344Z,21.14
2022-09-12T14:06:49.586Z,21.48
2022-09-12T14:09:26.072Z,20.78
2022-09-12T14:11:54.254Z,20.36
2022-09-12T14:14:28.247Z,20.60
2022-09-12T14:16:56.160Z,20.54
2022-09-12T14:19:26.019Z,20.20
2022-09-12T14:21:55.836Z,20.14
2022-09-12T14:24:24.433Z,20.15
2022-09-12T14:26:54.232Z,19.96
2022-09-12T14:29:23.880Z,20.06
2022-09-12T14:32:02.590Z,20.01
2022-09-12T14:34:30.915Z,19.96
2022-09-12T14:37:00.360Z,20.12
2022-09-12T14:39:31.989Z,20.19
2022-09-12T14:42:06.048Z,20.20
2022-09-12T14:44:34.423Z,20.27
2022-09-12T14:47:13.795Z,20.54
2022-09-12T14:49:42.338Z,20.22
2022-09-12T14:52:24.052Z,20.21
2022-09-12T14:54:59.683Z,20.36
2022-09-12T14:57:36.731Z,20.47
2022-09-12T15:00:20.365Z,20.12
2022-09-12T15:02:48.924Z,20.34
2022-09-12T15:05:20.281Z,20.44
2022-09-12T15:07:58.755Z,20.02
2022-09-12T15:10:31.105Z,19.88
2022-09-12T15:13:16.989Z,19.73
2022-09-12T15:15:46.322Z,19.76
2022-09-12T15:18:14.921Z,19.36
2022-09-12T15:20:44.235Z,19.19
2022-09-12T15:23:18.627Z,18.96
2022-09-12T15:25:46.946Z,18.79
2022-09-12T15:28:18.747Z,18.77
2022-09-12T15:30:49.540Z,18.56
2022-09-12T15:33:18.236Z,18.61
2022-09-12T15:35:46.210Z,18.63
2022-09-12T15:38:15.804Z,18.53
2022-09-12T15:40:43.938Z,18.15
2022-09-12T15:43:13.819Z,18.47
2022-09-12T15:45:43.609Z,18.49
2022-09-12T15:48:11.836Z,18.29
2022-09-12T15:50:39.726Z,18.09
2022-09-12T15:53:07.730Z,17.80
2022-09-12T15:55:37.450Z,18.02
2022-09-12T15:58:07.329Z,17.86
2022-09-12T16:00:35.491Z,17.82
2022-09-12T16:03:03.496Z,17.63
2022-09-12T16:05:31.518Z,17.56
2022-09-12T16:07:59.522Z,17.46
2022-09-12T16:10:30.282Z,17.38
2022-09-12T16:12:59.771Z,17.38
2022-09-12T16:15:27.795Z,17.27
2022-09-12T16:17:55.750Z,17.52
2022-09-12T16:20:24.390Z,17.47
2022-09-12T16:22:52.355Z,17.35
2022-09-12T16:25:20.245Z,17.47
2022-09-12T16:27:48.158Z,17.11
2022-09-12T16:30:17.633Z,17.33
2022-09-12T16:32:46.332Z,17.12
2022-09-12T16:35:14.285Z,17.16
2022-09-12T16:37:42.341Z,17.01
2022-09-12T16:40:11.736Z,16.95
2022-09-12T16:42:43.541Z,17.03
2022-09-12T16:45:12.491Z,16.75
2022-09-12T16:47:41.873Z,16.78
2022-09-12T16:50:10.187Z,16.67
2022-09-12T16:52:38.081Z,16.41
2022-09-12T16:55:06.960Z,16.28
2022-09-12T16:57:35.146Z,15.93
2022-09-12T17:00:03.585Z,16.07
2022-09-12T17:02:31.527Z,15.97
2022-09-12T17:05:00.785Z,15.83
2022-09-12T17:07:28.727Z,15.62
2022-09-12T17:09:57.001Z,15.62
2022-09-12T17:12:25.210Z,15.59
2022-09-12T17:14:53.130Z,15.52
2022-09-12T17:17:21.017Z,15.39
2022-09-12T17:19:48.982Z,15.36
2022-09-12T17:22:18.258Z,15.59
2022-09-12T17:24:46.188Z,15.84
2022-09-12T17:27:14.427Z,15.81
2022-09-12T17:29:42.385Z,15.72
2022-09-12T17:32:12.512Z,15.48
2022-09-12T17:34:42.369Z,15.34
2022-09-12T17:37:10.282Z,15.25
2022-09-12T17:39:39.613Z,15.43
2022-09-12T17:42:07.991Z,15.53
2022-09-12T17:44:36.139Z,15.74
2022-09-12T17:47:05.788Z,15.43
2022-09-12T17:49:33.998Z,15.19
2022-09-12T17:52:01.969Z,14.92
2022-09-12T17:54:29.913Z,14.80
2022-09-12T17:56:59.402Z,14.75
2022-09-12T17:59:27.357Z,14.48
2022-09-12T18:02:12.703Z,14.38
2022-09-12T18:04:41.673Z,14.26
2022-09-12T18:07:09.646Z,13.63
2022-09-12T18:09:37.573Z,14.15
2022-09-12T18:12:07.297Z,14.08
2022-09-12T18:14:35.476Z,14.07
2022-09-12T18:17:03.390Z,13.99
2022-09-12T18:19:31.991Z,13.85
2022-09-12T18:21:59.921Z,13.65
2022-09-12T18:24:27.949Z,13.45
2022-09-12T18:26:57.578Z,13.42
2022-09-12T18:29:28.026Z,13.37
2022-09-12T18:31:56.080Z,13.30
2022-09-12T18:34:24.008Z,13.21
2022-09-12T18:36:54.305Z,13.28
2022-09-12T18:39:26.867Z,13.28
2022-09-12T18:41:55.945Z,13.30
2022-09-12T18:44:23.948Z,13.27
2022-09-12T18:46:53.354Z,13.17
2022-09-12T18:49:21.507Z,13.14
2022-09-12T18:51:49.440Z,13.00
2022-09-12T18:54:17.909Z,13.09
2022-09-12T18:56:45.903Z,13.00
2022-09-12T18:59:14.936Z,12.91
2022-09-12T19:01:43.185Z,12.70
2022-09-12T19:04:13.624Z,12.58
2022-09-12T19:06:43.127Z,12.54
2022-09-12T19:09:12.962Z,12.32
2022-09-12T19:11:48.598Z,12.51
2022-09-12T19:14:17.063Z,12.43
2022-09-12T19:16:44.962Z,12.52
2022-09-12T19:19:14.289Z,12.30
2022-09-12T19:21:42.889Z,12.35
2022-09-12T19:24:11.542Z,12.34
2022-09-12T19:26:40.090Z,12.65
2022-09-12T19:29:08.594Z,12.62
2022-09-12T19:31:36.712Z,12.55
2022-09-12T19:34:06.002Z,12.41
2022-09-12T19:36:51.172Z,12.38
2022-09-12T19:39:20.283Z,12.22
2022-09-12T19:41:48.416Z,12.16
2022-09-12T19:44:19.135Z,12.13
2022-09-12T19:46:47.184Z,12.19
2022-09-12T19:49:15.126Z,12.16
2022-09-12T19:51:44.857Z,11.94
2022-09-12T19:54:12.734Z,11.85
2022-09-12T19:56:40.760Z,11.73
2022-09-12T19:59:08.820Z,11.68
2022-09-12T20:01:37.710Z,11.68
2022-09-12T20:04:06.815Z,11.58
2022-09-12T20:06:34.914Z,11.59
2022-09-12T20:09:04.557Z,11.59
2022-09-12T20:11:32.491Z,11.53
2022-09-12T20:14:00.476Z,11.47
2022-09-12T20:16:30.068Z,11.48
2022-09-12T20:19:00.040Z,11.33
2022-09-12T20:21:31.973Z,11.32
2022-09-12T20:24:06.268Z,11.23
2022-09-12T20:26:34.764Z,11.24
2022-09-12T20:29:03.283Z,11.32
2022-09-12T20:31:31.984Z,11.21
2022-09-12T20:34:00.137Z,11.13
2022-09-12T20:36:28.149Z,11.08
2022-09-12T20:38:57.884Z,11.01
2022-09-12T20:41:28.536Z,11.01
2022-09-12T20:43:57.180Z,10.87
2022-09-12T20:46:26.513Z,11.00
2022-09-12T20:48:54.814Z,10.93
2022-09-12T20:51:23.184Z,10.33
2022-09-12T20:53:54.444Z,10.93
2022-09-12T20:56:22.861Z,10.79
2022-09-12T20:58:52.262Z,10.65
2022-09-12T21:01:20.372Z,10.60
2022-09-12T21:03:48.489Z,10.54
2022-09-12T21:06:17.633Z,10.55
2022-09-12T21:08:46.037Z,10.52
2022-09-12T21:11:14.052Z,10.51
2022-09-12T21:13:42.256Z,10.24
2022-09-12T21:16:13.458Z,10.38
2022-09-12T21:18:42.297Z,10.15
2022-09-12T21:21:11.499Z,10.15
2022-09-12T21:23:39.585Z,10.35
2022-09-12T21:26:08.040Z,10.32
2022-09-12T21:28:35.960Z,10.18
2022-09-12T21:31:03.877Z,10.12
2022-09-12T21:33:33.212Z,9.85
2022-09-12T21:36:03.837Z,10.04
2022-09-12T21:38:32.188Z,9.93
2022-09-12T21:41:08.125Z,9.87
2022-09-12T21:43:36.456Z,9.89
2022-09-12T21:46:05.430Z,10.05
2022-09-12T21:48:35.161Z,10.05
2022-09-12T21:51:03.293Z,9.99
2022-09-12T21:53:31.308Z,9.81
2022-09-12T21:56:02.529Z,9.65
2022-09-12T21:58:30.514Z,9.74
2022-09-12T22:00:59.814Z,9.66
2022-09-12T22:03:29.464Z,9.66
2022-09-12T22:06:02.898Z,9.23
2022-09-12T22:08:32.178Z,9.55
2022-09-12T22:11:00.917Z,9.51
2022-09-12T22:13:29.576Z,9.44
2022-09-12T22:15:57.512Z,9.50
2022-09-12T22:18:25.517Z,9.51
2022-09-12T22:21:01.853Z,9.52
2022-09-12T22:23:47.259Z,9.57
2022-09-12T22:26:15.634Z,9.50
2022-09-12T22:28:43.893Z,9.53
2022-09-12T22:31:12.624Z,9.52
2022-09-12T22:33:41.212Z,9.43
2022-09-12T22:36:11.057Z,9.32
2022-09-12T22:38:38.996Z,9.25
2022-09-12T22:41:08.275Z,9.14
2022-09-12T22:43:36.566Z,9.08
2022-09-12T22:46:07.203Z,9.06
2022-09-12T22:48:35.120Z,9.02
2022-09-12T22:51:03.253Z,9.09
2022-09-12T22:53:32.627Z,9.09
2022-09-12T22:56:00.617Z,9.02
2022-09-12T22:58:28.568Z,8.91
2022-09-12T23:00:56.541Z,9.05
2022-09-12T23:03:24.626Z,8.86
2022-09-12T23:05:52.573Z,8.98
2022-09-12T23:08:20.513Z,8.99
2022-09-12T23:10:49.774Z,8.92
2022-09-12T23:13:17.740Z,8.93
2022-09-12T23:15:45.627Z,8.77
2022-09-12T23:18:13.545Z,8.90
2022-09-12T23:20:41.429Z,8.87
2022-09-12T23:23:09.684Z,8.86
2022-09-12T23:25:37.980Z,8.88
2022-09-12T23:28:07.273Z,8.79
2022-09-12T23:30:35.173Z,8.79
2022-09-12T23:33:03.093Z,8.66
2022-09-12T23:35:30.977Z,8.83
2022-09-12T23:37:58.925Z,8.69
2022-09-12T23:40:26.823Z,8.59
2022-09-12T23:42:54.709Z,8.56
2022-09-12T23:45:24.032Z,8.53
2022-09-12T23:47:51.977Z,8.53
2022-09-12T23:50:19.897Z,8.58
2022-09-12T23:52:47.865Z,8.54
2022-09-12T23:55:15.932Z,8.49
2022-09-12T23:57:43.821Z,8.58
